sensor_id;sensor_type;location;lat;lon;timestamp;P1;durP1;ratioP1;P2;durP2;ratioP2
77246;SDS011;66279;42.820;23.374;2023-04-03T00:00:18;7.32;;;3.80;;
77246;SDS011;66279;42.820;23.374;2023-04-03T00:02:44;12.77;;;4.18;;
77246;SDS011;66279;42.820;23.374;2023-04-03T00:05:10;15.48;;;6.25;;
77246;SDS011;66279;42.820;23.374;2023-04-03T00:07:35;23.27;;;6.32;;
77246;SDS011;66279;42.820;23.374;2023-04-03T00:10:01;12.63;;;4.55;;
77246;SDS011;66279;42.820;23.374;2023-04-03T00:12:26;12.55;;;4.78;;
77246;SDS011;66279;42.820;23.374;2023-04-03T00:14:52;12.15;;;4.00;;
77246;SDS011;66279;42.820;23.374;2023-04-03T00:17:17;6.80;;;3.85;;
77246;SDS011;66279;42.820;23.374;2023-04-03T00:19:43;9.10;;;3.83;;
77246;SDS011;66279;42.820;23.374;2023-04-03T00:22:08;6.95;;;4.22;;
77246;SDS011;66279;42.820;23.374;2023-04-03T00:24:34;10.80;;;4.70;;
77246;SDS011;66279;42.820;23.374;2023-04-03T00:27:00;12.65;;;5.68;;
77246;SDS011;66279;42.820;23.374;2023-04-03T00:29:25;12.35;;;5.00;;
77246;SDS011;66279;42.820;23.374;2023-04-03T00:31:51;10.00;;;4.43;;
77246;SDS011;66279;42.820;23.374;2023-04-03T00:34:16;9.13;;;4.30;;
77246;SDS011;66279;42.820;23.374;2023-04-03T00:36:42;17.90;;;4.72;;
77246;SDS011;66279;42.820;23.374;2023-04-03T00:39:07;18.75;;;5.70;;
77246;SDS011;66279;42.820;23.374;2023-04-03T00:41:33;13.90;;;5.47;;
77246;SDS011;66279;42.820;23.374;2023-04-03T00:43:58;11.38;;;5.43;;
77246;SDS011;66279;42.820;23.374;2023-04-03T00:46:24;7.07;;;4.30;;
77246;SDS011;66279;42.820;23.374;2023-04-03T00:48:49;10.32;;;4.22;;
77246;SDS011;66279;42.820;23.374;2023-04-03T00:51:20;15.05;;;5.53;;
77246;SDS011;66279;42.820;23.374;2023-04-03T00:53:50;8.38;;;5.03;;
77246;SDS011;66279;42.820;23.374;2023-04-03T00:56:20;12.60;;;4.88;;
77246;SDS011;66279;42.820;23.374;2023-04-03T00:58:51;15.00;;;4.88;;
77246;SDS011;66279;42.820;23.374;2023-04-03T01:01:21;14.27;;;5.13;;
77246;SDS011;66279;42.820;23.374;2023-04-03T01:03:49;16.33;;;5.60;;
77246;SDS011;66279;42.820;23.374;2023-04-03T01:06:15;15.88;;;5.75;;
77246;SDS011;66279;42.820;23.374;2023-04-03T01:08:42;10.75;;;5.43;;
77246;SDS011;66279;42.820;23.374;2023-04-03T01:11:08;14.85;;;5.45;;
77246;SDS011;66279;42.820;23.374;2023-04-03T01:13:34;10.38;;;5.10;;
77246;SDS011;66279;42.820;23.374;2023-04-03T01:16:03;12.80;;;5.63;;
77246;SDS011;66279;42.820;23.374;2023-04-03T01:18:31;15.93;;;5.32;;
77246;SDS011;66279;42.820;23.374;2023-04-03T01:25:58;10.55;;;5.40;;
77246;SDS011;66279;42.820;23.374;2023-04-03T01:28:31;21.27;;;6.47;;
77246;SDS011;66279;42.820;23.374;2023-04-03T01:33:49;13.85;;;5.75;;
77246;SDS011;66279;42.820;23.374;2023-04-03T01:36:23;15.85;;;6.47;;
77246;SDS011;66279;42.820;23.374;2023-04-03T01:38:50;9.05;;;4.78;;
77246;SDS011;66279;42.820;23.374;2023-04-03T01:41:17;13.10;;;5.38;;
77246;SDS011;66279;42.820;23.374;2023-04-03T01:43:43;15.65;;;6.80;;
77246;SDS011;66279;42.820;23.374;2023-04-03T01:46:09;24.73;;;9.02;;
77246;SDS011;66279;42.820;23.374;2023-04-03T01:48:35;19.23;;;7.78;;
77246;SDS011;66279;42.820;23.374;2023-04-03T01:51:00;13.48;;;6.88;;
77246;SDS011;66279;42.820;23.374;2023-04-03T01:53:26;19.05;;;7.03;;
77246;SDS011;66279;42.820;23.374;2023-04-03T01:55:51;12.77;;;5.78;;
77246;SDS011;66279;42.820;23.374;2023-04-03T01:58:17;9.45;;;4.80;;
77246;SDS011;66279;42.820;23.374;2023-04-03T02:00:42;10.13;;;4.75;;
77246;SDS011;66279;42.820;23.374;2023-04-03T02:03:08;17.55;;;7.00;;
77246;SDS011;66279;42.820;23.374;2023-04-03T02:05:33;31.20;;;9.82;;
77246;SDS011;66279;42.820;23.374;2023-04-03T02:08:00;25.08;;;9.35;;
77246;SDS011;66279;42.820;23.374;2023-04-03T02:10:25;34.45;;;13.13;;
77246;SDS011;66279;42.820;23.374;2023-04-03T02:12:51;24.70;;;10.77;;
77246;SDS011;66279;42.820;23.374;2023-04-03T02:15:16;24.42;;;9.60;;
77246;SDS011;66279;42.820;23.374;2023-04-03T02:17:42;21.73;;;9.35;;
77246;SDS011;66279;42.820;23.374;2023-04-03T02:20:08;23.48;;;9.40;;
77246;SDS011;66279;42.820;23.374;2023-04-03T02:22:34;21.45;;;9.02;;
77246;SDS011;66279;42.820;23.374;2023-04-03T02:25:00;18.25;;;7.15;;
77246;SDS011;66279;42.820;23.374;2023-04-03T02:27:26;19.15;;;8.07;;
77246;SDS011;66279;42.820;23.374;2023-04-03T02:29:52;17.65;;;7.47;;
77246;SDS011;66279;42.820;23.374;2023-04-03T02:32:18;16.50;;;6.97;;
77246;SDS011;66279;42.820;23.374;2023-04-03T02:34:43;19.27;;;7.57;;
77246;SDS011;66279;42.820;23.374;2023-04-03T02:37:09;12.60;;;6.38;;
77246;SDS011;66279;42.820;23.374;2023-04-03T02:39:34;13.82;;;5.90;;
77246;SDS011;66279;42.820;23.374;2023-04-03T02:42:00;12.82;;;6.35;;
77246;SDS011;66279;42.820;23.374;2023-04-03T02:44:26;12.20;;;6.00;;
77246;SDS011;66279;42.820;23.374;2023-04-03T02:46:51;12.52;;;5.88;;
77246;SDS011;66279;42.820;23.374;2023-04-03T02:49:17;13.30;;;7.25;;
77246;SDS011;66279;42.820;23.374;2023-04-03T02:51:42;14.30;;;7.15;;
77246;SDS011;66279;42.820;23.374;2023-04-03T02:54:08;20.05;;;6.30;;
77246;SDS011;66279;42.820;23.374;2023-04-03T02:56:35;17.30;;;7.32;;
77246;SDS011;66279;42.820;23.374;2023-04-03T02:59:00;13.80;;;5.57;;
77246;SDS011;66279;42.820;23.374;2023-04-03T03:01:26;15.38;;;7.05;;
77246;SDS011;66279;42.820;23.374;2023-04-03T03:03:56;17.27;;;7.32;;
77246;SDS011;66279;42.820;23.374;2023-04-03T03:06:22;21.48;;;7.47;;
77246;SDS011;66279;42.820;23.374;2023-04-03T03:08:48;19.92;;;8.05;;
77246;SDS011;66279;42.820;23.374;2023-04-03T03:11:13;18.95;;;8.43;;
77246;SDS011;66279;42.820;23.374;2023-04-03T03:13:39;21.83;;;8.27;;
77246;SDS011;66279;42.820;23.374;2023-04-03T03:16:05;21.95;;;8.23;;
77246;SDS011;66279;42.820;23.374;2023-04-03T03:18:31;26.25;;;7.68;;
77246;SDS011;66279;42.820;23.374;2023-04-03T03:20:57;28.30;;;11.40;;
77246;SDS011;66279;42.820;23.374;2023-04-03T03:23:24;65.43;;;15.15;;
77246;SDS011;66279;42.820;23.374;2023-04-03T03:25:58;25.60;;;9.10;;
77246;SDS011;66279;42.820;23.374;2023-04-03T03:28:25;18.50;;;7.88;;
77246;SDS011;66279;42.820;23.374;2023-04-03T03:30:51;21.33;;;8.70;;
77246;SDS011;66279;42.820;23.374;2023-04-03T03:33:17;22.27;;;9.82;;
77246;SDS011;66279;42.820;23.374;2023-04-03T03:35:43;32.63;;;12.43;;
77246;SDS011;66279;42.820;23.374;2023-04-03T03:38:08;24.60;;;8.85;;
77246;SDS011;66279;42.820;23.374;2023-04-03T03:40:34;25.65;;;8.93;;
77246;SDS011;66279;42.820;23.374;2023-04-03T03:43:00;22.73;;;7.28;;
77246;SDS011;66279;42.820;23.374;2023-04-03T03:45:25;19.80;;;7.82;;
77246;SDS011;66279;42.820;23.374;2023-04-03T03:47:51;17.42;;;9.27;;
77246;SDS011;66279;42.820;23.374;2023-04-03T03:50:17;17.65;;;7.55;;
77246;SDS011;66279;42.820;23.374;2023-04-03T03:52:42;14.60;;;6.53;;
77246;SDS011;66279;42.820;23.374;2023-04-03T03:55:08;16.52;;;8.30;;
77246;SDS011;66279;42.820;23.374;2023-04-03T03:57:33;22.17;;;9.05;;
77246;SDS011;66279;42.820;23.374;2023-04-03T03:59:59;21.50;;;8.45;;
77246;SDS011;66279;42.820;23.374;2023-04-03T04:02:25;16.42;;;6.75;;
77246;SDS011;66279;42.820;23.374;2023-04-03T04:04:50;19.80;;;7.65;;
77246;SDS011;66279;42.820;23.374;2023-04-03T04:07:16;15.10;;;7.13;;
77246;SDS011;66279;42.820;23.374;2023-04-03T04:09:41;21.05;;;7.28;;
77246;SDS011;66279;42.820;23.374;2023-04-03T04:12:07;25.75;;;8.80;;
77246;SDS011;66279;42.820;23.374;2023-04-03T04:14:32;27.85;;;7.40;;
77246;SDS011;66279;42.820;23.374;2023-04-03T04:16:58;19.23;;;7.32;;
77246;SDS011;66279;42.820;23.374;2023-04-03T04:19:23;19.10;;;7.18;;
77246;SDS011;66279;42.820;23.374;2023-04-03T04:21:49;20.00;;;8.43;;
77246;SDS011;66279;42.820;23.374;2023-04-03T04:24:15;24.02;;;7.60;;
77246;SDS011;66279;42.820;23.374;2023-04-03T04:26:40;23.15;;;9.48;;
77246;SDS011;66279;42.820;23.374;2023-04-03T04:29:06;22.23;;;8.15;;
77246;SDS011;66279;42.820;23.374;2023-04-03T04:31:31;20.02;;;7.45;;
77246;SDS011;66279;42.820;23.374;2023-04-03T04:33:57;20.75;;;8.73;;
77246;SDS011;66279;42.820;23.374;2023-04-03T04:36:22;24.55;;;9.13;;
77246;SDS011;66279;42.820;23.374;2023-04-03T04:38:48;23.80;;;8.55;;
77246;SDS011;66279;42.820;23.374;2023-04-03T04:41:14;22.05;;;8.85;;
77246;SDS011;66279;42.820;23.374;2023-04-03T04:43:39;21.88;;;7.57;;
77246;SDS011;66279;42.820;23.374;2023-04-03T04:46:08;16.63;;;7.82;;
77246;SDS011;66279;42.820;23.374;2023-04-03T04:48:38;16.67;;;7.63;;
77246;SDS011;66279;42.820;23.374;2023-04-03T04:51:03;23.17;;;6.80;;
77246;SDS011;66279;42.820;23.374;2023-04-03T04:53:29;16.63;;;7.22;;
77246;SDS011;66279;42.820;23.374;2023-04-03T04:55:55;22.90;;;8.02;;
77246;SDS011;66279;42.820;23.374;2023-04-03T04:58:21;18.48;;;7.60;;
77246;SDS011;66279;42.820;23.374;2023-04-03T05:00:46;25.38;;;7.88;;
77246;SDS011;66279;42.820;23.374;2023-04-03T05:03:12;18.40;;;6.95;;
77246;SDS011;66279;42.820;23.374;2023-04-03T05:05:37;66.95;;;17.23;;
77246;SDS011;66279;42.820;23.374;2023-04-03T05:08:03;51.58;;;14.32;;
77246;SDS011;66279;42.820;23.374;2023-04-03T05:10:29;69.32;;;21.45;;
77246;SDS011;66279;42.820;23.374;2023-04-03T05:12:56;44.38;;;15.38;;
77246;SDS011;66279;42.820;23.374;2023-04-03T05:15:21;46.55;;;14.10;;
77246;SDS011;66279;42.820;23.374;2023-04-03T05:17:47;44.35;;;14.38;;
77246;SDS011;66279;42.820;23.374;2023-04-03T05:20:13;50.00;;;10.73;;
77246;SDS011;66279;42.820;23.374;2023-04-03T05:22:38;27.65;;;8.70;;
77246;SDS011;66279;42.820;23.374;2023-04-03T05:25:04;32.83;;;10.38;;
77246;SDS011;66279;42.820;23.374;2023-04-03T05:27:30;37.30;;;9.23;;
77246;SDS011;66279;42.820;23.374;2023-04-03T05:29:56;26.23;;;9.02;;
77246;SDS011;66279;42.820;23.374;2023-04-03T05:32:23;25.33;;;8.95;;
77246;SDS011;66279;42.820;23.374;2023-04-03T05:34:50;43.03;;;14.80;;
77246;SDS011;66279;42.820;23.374;2023-04-03T05:37:16;48.95;;;17.27;;
77246;SDS011;66279;42.820;23.374;2023-04-03T05:39:42;48.45;;;16.95;;
77246;SDS011;66279;42.820;23.374;2023-04-03T05:42:08;79.82;;;29.00;;
77246;SDS011;66279;42.820;23.374;2023-04-03T05:44:33;106.80;;;36.65;;
77246;SDS011;66279;42.820;23.374;2023-04-03T05:46:59;105.40;;;39.33;;
77246;SDS011;66279;42.820;23.374;2023-04-03T05:49:24;89.88;;;37.42;;
77246;SDS011;66279;42.820;23.374;2023-04-03T05:51:50;112.60;;;46.53;;
77246;SDS011;66279;42.820;23.374;2023-04-03T05:54:24;270.42;;;78.75;;
77246;SDS011;66279;42.820;23.374;2023-04-03T05:56:51;275.92;;;82.38;;
77246;SDS011;66279;42.820;23.374;2023-04-03T05:59:18;299.17;;;81.10;;
77246;SDS011;66279;42.820;23.374;2023-04-03T06:01:44;264.67;;;85.57;;
77246;SDS011;66279;42.820;23.374;2023-04-03T06:04:10;371.25;;;104.95;;
77246;SDS011;66279;42.820;23.374;2023-04-03T06:06:43;314.10;;;97.88;;
77246;SDS011;66279;42.820;23.374;2023-04-03T06:09:22;247.32;;;84.18;;
77246;SDS011;66279;42.820;23.374;2023-04-03T06:11:49;141.40;;;53.45;;
77246;SDS011;66279;42.820;23.374;2023-04-03T06:14:15;124.03;;;41.20;;
77246;SDS011;66279;42.820;23.374;2023-04-03T06:16:41;115.22;;;38.30;;
77246;SDS011;66279;42.820;23.374;2023-04-03T06:19:07;129.95;;;39.85;;
77246;SDS011;66279;42.820;23.374;2023-04-03T06:21:34;132.07;;;44.65;;
77246;SDS011;66279;42.820;23.374;2023-04-03T06:24:01;99.50;;;38.25;;
77246;SDS011;66279;42.820;23.374;2023-04-03T06:26:27;104.20;;;36.78;;
77246;SDS011;66279;42.820;23.374;2023-04-03T06:28:53;104.00;;;35.10;;
77246;SDS011;66279;42.820;23.374;2023-04-03T06:31:19;96.95;;;33.38;;
77246;SDS011;66279;42.820;23.374;2023-04-03T06:33:45;101.18;;;36.63;;
77246;SDS011;66279;42.820;23.374;2023-04-03T06:36:10;130.00;;;42.50;;
77246;SDS011;66279;42.820;23.374;2023-04-03T06:38:37;120.25;;;36.75;;
77246;SDS011;66279;42.820;23.374;2023-04-03T06:41:03;121.88;;;44.47;;
77246;SDS011;66279;42.820;23.374;2023-04-03T06:43:29;139.02;;;51.15;;
77246;SDS011;66279;42.820;23.374;2023-04-03T06:45:56;123.47;;;49.78;;
77246;SDS011;66279;42.820;23.374;2023-04-03T06:48:22;99.07;;;31.45;;
77246;SDS011;66279;42.820;23.374;2023-04-03T06:50:48;85.45;;;30.88;;
77246;SDS011;66279;42.820;23.374;2023-04-03T06:53:13;73.18;;;28.30;;
77246;SDS011;66279;42.820;23.374;2023-04-03T06:55:39;74.53;;;24.70;;
77246;SDS011;66279;42.820;23.374;2023-04-03T06:58:04;78.65;;;27.60;;
77246;SDS011;66279;42.820;23.374;2023-04-03T07:00:30;62.22;;;23.67;;
77246;SDS011;66279;42.820;23.374;2023-04-03T07:02:56;64.57;;;26.42;;
77246;SDS011;66279;42.820;23.374;2023-04-03T07:05:23;63.17;;;24.00;;
77246;SDS011;66279;42.820;23.374;2023-04-03T07:07:49;52.95;;;18.92;;
77246;SDS011;66279;42.820;23.374;2023-04-03T07:10:15;47.08;;;20.73;;
77246;SDS011;66279;42.820;23.374;2023-04-03T07:12:41;49.38;;;18.20;;
77246;SDS011;66279;42.820;23.374;2023-04-03T07:15:07;36.83;;;16.50;;
77246;SDS011;66279;42.820;23.374;2023-04-03T07:17:34;38.72;;;17.05;;
77246;SDS011;66279;42.820;23.374;2023-04-03T07:20:01;38.05;;;16.00;;
77246;SDS011;66279;42.820;23.374;2023-04-03T07:22:26;36.55;;;16.65;;
77246;SDS011;66279;42.820;23.374;2023-04-03T07:24:52;34.67;;;16.65;;
77246;SDS011;66279;42.820;23.374;2023-04-03T07:27:18;39.92;;;15.75;;
77246;SDS011;66279;42.820;23.374;2023-04-03T07:29:43;35.65;;;15.18;;
77246;SDS011;66279;42.820;23.374;2023-04-03T07:32:09;29.08;;;14.43;;
77246;SDS011;66279;42.820;23.374;2023-04-03T07:34:35;36.92;;;16.25;;
77246;SDS011;66279;42.820;23.374;2023-04-03T07:37:01;39.22;;;16.60;;
77246;SDS011;66279;42.820;23.374;2023-04-03T07:39:27;36.17;;;14.80;;
77246;SDS011;66279;42.820;23.374;2023-04-03T07:41:53;35.42;;;15.02;;
77246;SDS011;66279;42.820;23.374;2023-04-03T07:44:20;40.97;;;16.17;;
77246;SDS011;66279;42.820;23.374;2023-04-03T07:46:46;41.55;;;16.33;;
77246;SDS011;66279;42.820;23.374;2023-04-03T07:49:12;42.40;;;19.83;;
77246;SDS011;66279;42.820;23.374;2023-04-03T07:51:37;40.88;;;15.55;;
77246;SDS011;66279;42.820;23.374;2023-04-03T07:54:03;39.25;;;16.00;;
77246;SDS011;66279;42.820;23.374;2023-04-03T07:56:29;44.97;;;16.30;;
77246;SDS011;66279;42.820;23.374;2023-04-03T07:58:54;42.92;;;16.77;;
77246;SDS011;66279;42.820;23.374;2023-04-03T08:01:20;34.78;;;15.73;;
77246;SDS011;66279;42.820;23.374;2023-04-03T08:03:46;40.45;;;19.00;;
77246;SDS011;66279;42.820;23.374;2023-04-03T08:06:11;46.15;;;16.30;;
77246;SDS011;66279;42.820;23.374;2023-04-03T08:08:38;37.03;;;16.73;;
77246;SDS011;66279;42.820;23.374;2023-04-03T08:11:04;42.08;;;19.25;;
77246;SDS011;66279;42.820;23.374;2023-04-03T08:13:31;43.67;;;17.95;;
77246;SDS011;66279;42.820;23.374;2023-04-03T08:15:57;37.92;;;17.15;;
77246;SDS011;66279;42.820;23.374;2023-04-03T08:18:24;36.60;;;17.02;;
77246;SDS011;66279;42.820;23.374;2023-04-03T08:20:51;44.53;;;18.08;;
77246;SDS011;66279;42.820;23.374;2023-04-03T08:23:17;39.50;;;18.85;;
77246;SDS011;66279;42.820;23.374;2023-04-03T08:25:43;42.58;;;19.70;;
77246;SDS011;66279;42.820;23.374;2023-04-03T08:28:10;40.42;;;17.45;;
77246;SDS011;66279;42.820;23.374;2023-04-03T08:30:38;42.45;;;15.88;;
77246;SDS011;66279;42.820;23.374;2023-04-03T08:33:05;46.33;;;19.00;;
77246;SDS011;66279;42.820;23.374;2023-04-03T08:35:31;48.20;;;21.23;;
77246;SDS011;66279;42.820;23.374;2023-04-03T08:37:57;62.17;;;26.30;;
77246;SDS011;66279;42.820;23.374;2023-04-03T08:40:22;82.60;;;30.33;;
77246;SDS011;66279;42.820;23.374;2023-04-03T08:42:58;44.80;;;21.15;;
77246;SDS011;66279;42.820;23.374;2023-04-03T08:45:46;57.40;;;24.60;;
77246;SDS011;66279;42.820;23.374;2023-04-03T08:48:15;104.63;;;37.58;;
77246;SDS011;66279;42.820;23.374;2023-04-03T08:50:46;66.63;;;26.65;;
77246;SDS011;66279;42.820;23.374;2023-04-03T08:53:16;62.20;;;26.45;;
77246;SDS011;66279;42.820;23.374;2023-04-03T08:56:04;66.10;;;24.25;;
77246;SDS011;66279;42.820;23.374;2023-04-03T08:58:35;71.80;;;28.80;;
77246;SDS011;66279;42.820;23.374;2023-04-03T09:03:51;130.88;;;47.53;;
77246;SDS011;66279;42.820;23.374;2023-04-03T09:06:23;79.45;;;32.72;;
77246;SDS011;66279;42.820;23.374;2023-04-03T09:22:27;45.40;;;18.27;;
77246;SDS011;66279;42.820;23.374;2023-04-03T09:25:01;47.70;;;18.83;;
77246;SDS011;66279;42.820;23.374;2023-04-03T09:27:34;33.92;;;15.27;;
77246;SDS011;66279;42.820;23.374;2023-04-03T09:29:59;42.40;;;14.05;;
77246;SDS011;66279;42.820;23.374;2023-04-03T09:32:27;33.58;;;18.00;;
77246;SDS011;66279;42.820;23.374;2023-04-03T09:34:56;61.15;;;17.75;;
77246;SDS011;66279;42.820;23.374;2023-04-03T09:37:37;36.47;;;16.52;;
77246;SDS011;66279;42.820;23.374;2023-04-03T09:42:58;28.20;;;13.65;;
77246;SDS011;66279;42.820;23.374;2023-04-03T09:45:26;30.63;;;13.65;;
77246;SDS011;66279;42.820;23.374;2023-04-03T09:50:41;30.90;;;16.60;;
77246;SDS011;66279;42.820;23.374;2023-04-03T09:55:55;29.42;;;15.23;;
77246;SDS011;66279;42.820;23.374;2023-04-03T09:58:28;33.45;;;14.32;;
77246;SDS011;66279;42.820;23.374;2023-04-03T10:00:59;28.05;;;12.18;;
77246;SDS011;66279;42.820;23.374;2023-04-03T10:03:33;27.25;;;13.15;;
77246;SDS011;66279;42.820;23.374;2023-04-03T10:06:01;52.17;;;20.58;;
77246;SDS011;66279;42.820;23.374;2023-04-03T10:08:32;42.75;;;14.80;;
77246;SDS011;66279;42.820;23.374;2023-04-03T10:13:36;32.10;;;12.40;;
77246;SDS011;66279;42.820;23.374;2023-04-03T10:16:14;42.28;;;15.50;;
77246;SDS011;66279;42.820;23.374;2023-04-03T10:21:46;52.47;;;19.50;;
77246;SDS011;66279;42.820;23.374;2023-04-03T10:30:19;147.18;;;60.55;;
77246;SDS011;66279;42.820;23.374;2023-04-03T10:38:40;16.27;;;6.55;;
77246;SDS011;66279;42.820;23.374;2023-04-03T10:41:12;4.68;;;1.90;;
77246;SDS011;66279;42.820;23.374;2023-04-03T10:44:04;4.18;;;2.20;;
77246;SDS011;66279;42.820;23.374;2023-04-03T10:46:35;8.65;;;4.40;;
77246;SDS011;66279;42.820;23.374;2023-04-03T10:49:13;4.85;;;2.00;;
77246;SDS011;66279;42.820;23.374;2023-04-03T10:51:45;5.82;;;1.80;;
77246;SDS011;66279;42.820;23.374;2023-04-03T10:54:19;6.03;;;2.40;;
77246;SDS011;66279;42.820;23.374;2023-04-03T10:57:03;2.20;;;1.80;;
77246;SDS011;66279;42.820;23.374;2023-04-03T10:59:47;5.32;;;2.20;;
77246;SDS011;66279;42.820;23.374;2023-04-03T11:05:45;4.10;;;2.20;;
77246;SDS011;66279;42.820;23.374;2023-04-03T11:07:55;5.57;;;2.17;;
77246;SDS011;66279;42.820;23.374;2023-04-03T11:10:44;8.57;;;2.53;;
77246;SDS011;66279;42.820;23.374;2023-04-03T11:13:24;5.13;;;2.33;;
77246;SDS011;66279;42.820;23.374;2023-04-03T11:15:55;5.82;;;3.08;;
77246;SDS011;66279;42.820;23.374;2023-04-03T11:18:27;4.40;;;2.55;;
77246;SDS011;66279;42.820;23.374;2023-04-03T11:21:04;3.53;;;2.50;;
77246;SDS011;66279;42.820;23.374;2023-04-03T11:23:36;7.22;;;2.90;;
77246;SDS011;66279;42.820;23.374;2023-04-03T11:26:12;6.95;;;3.25;;
77246;SDS011;66279;42.820;23.374;2023-04-03T11:28:41;6.00;;;4.78;;
77246;SDS011;66279;42.820;23.374;2023-04-03T11:36:55;12.43;;;4.00;;
77246;SDS011;66279;42.820;23.374;2023-04-03T11:39:33;5.05;;;3.42;;
77246;SDS011;66279;42.820;23.374;2023-04-03T11:42:46;8.05;;;3.45;;
77246;SDS011;66279;42.820;23.374;2023-04-03T11:47:59;11.65;;;5.28;;
77246;SDS011;66279;42.820;23.374;2023-04-03T11:50:31;19.50;;;8.38;;
77246;SDS011;66279;42.820;23.374;2023-04-03T12:05:54;21.35;;;11.98;;
77246;SDS011;66279;42.820;23.374;2023-04-03T12:08:29;23.13;;;11.50;;
77246;SDS011;66279;42.820;23.374;2023-04-03T12:16:24;32.25;;;13.43;;
77246;SDS011;66279;42.820;23.374;2023-04-03T12:21:21;29.58;;;13.68;;
77246;SDS011;66279;42.820;23.374;2023-04-03T12:23:59;24.05;;;12.85;;
77246;SDS011;66279;42.820;23.374;2023-04-03T12:26:41;27.73;;;13.40;;
77246;SDS011;66279;42.820;23.374;2023-04-03T12:48:55;34.75;;;17.48;;
77246;SDS011;66279;42.820;23.374;2023-04-03T12:51:21;32.75;;;16.33;;
77246;SDS011;66279;42.820;23.374;2023-04-03T12:56:41;18.77;;;11.20;;
77246;SDS011;66279;42.820;23.374;2023-04-03T13:01:52;28.15;;;13.60;;
77246;SDS011;66279;42.820;23.374;2023-04-03T13:04:26;31.25;;;13.80;;
77246;SDS011;66279;42.820;23.374;2023-04-03T13:06:53;38.63;;;16.75;;
77246;SDS011;66279;42.820;23.374;2023-04-03T13:11:46;27.77;;;9.85;;
77246;SDS011;66279;42.820;23.374;2023-04-03T13:14:23;19.63;;;9.45;;
77246;SDS011;66279;42.820;23.374;2023-04-03T13:17:00;22.63;;;11.02;;
77246;SDS011;66279;42.820;23.374;2023-04-03T13:19:32;14.20;;;7.30;;
77246;SDS011;66279;42.820;23.374;2023-04-03T13:24:47;26.75;;;9.05;;
77246;SDS011;66279;42.820;23.374;2023-04-03T13:27:15;45.75;;;15.75;;
77246;SDS011;66279;42.820;23.374;2023-04-03T13:29:42;70.28;;;21.70;;
77246;SDS011;66279;42.820;23.374;2023-04-03T13:32:13;54.63;;;22.05;;
77246;SDS011;66279;42.820;23.374;2023-04-03T13:34:51;25.95;;;11.63;;
77246;SDS011;66279;42.820;23.374;2023-04-03T13:42:33;15.73;;;8.55;;
77246;SDS011;66279;42.820;23.374;2023-04-03T13:53:29;15.80;;;9.48;;
77246;SDS011;66279;42.820;23.374;2023-04-03T13:58:28;13.50;;;7.93;;
77246;SDS011;66279;42.820;23.374;2023-04-03T14:01:17;13.57;;;7.10;;
77246;SDS011;66279;42.820;23.374;2023-04-03T14:04:01;15.27;;;8.30;;
77246;SDS011;66279;42.820;23.374;2023-04-03T14:06:35;21.30;;;9.73;;
77246;SDS011;66279;42.820;23.374;2023-04-03T14:09:02;22.77;;;10.32;;
77246;SDS011;66279;42.820;23.374;2023-04-03T14:11:29;16.95;;;9.32;;
77246;SDS011;66279;42.820;23.374;2023-04-03T14:14:00;26.05;;;11.50;;
77246;SDS011;66279;42.820;23.374;2023-04-03T14:16:31;30.23;;;11.80;;
77246;SDS011;66279;42.820;23.374;2023-04-03T14:18:58;24.55;;;11.32;;
77246;SDS011;66279;42.820;23.374;2023-04-03T14:21:23;26.70;;;12.00;;
77246;SDS011;66279;42.820;23.374;2023-04-03T14:23:49;59.08;;;22.40;;
77246;SDS011;66279;42.820;23.374;2023-04-03T14:26:17;81.40;;;33.05;;
77246;SDS011;66279;42.820;23.374;2023-04-03T14:28:46;79.90;;;32.72;;
77246;SDS011;66279;42.820;23.374;2023-04-03T14:31:14;44.95;;;19.45;;
77246;SDS011;66279;42.820;23.374;2023-04-03T14:33:41;47.33;;;21.15;;
77246;SDS011;66279;42.820;23.374;2023-04-03T14:36:17;64.28;;;27.52;;
77246;SDS011;66279;42.820;23.374;2023-04-03T14:38:46;69.47;;;31.70;;
77246;SDS011;66279;42.820;23.374;2023-04-03T14:41:14;45.83;;;20.67;;
77246;SDS011;66279;42.820;23.374;2023-04-03T14:43:41;36.90;;;19.80;;
77246;SDS011;66279;42.820;23.374;2023-04-03T14:46:14;90.68;;;35.28;;
77246;SDS011;66279;42.820;23.374;2023-04-03T14:48:41;83.95;;;30.00;;
77246;SDS011;66279;42.820;23.374;2023-04-03T14:51:09;61.30;;;22.30;;
77246;SDS011;66279;42.820;23.374;2023-04-03T14:56:04;103.10;;;31.77;;
77246;SDS011;66279;42.820;23.374;2023-04-03T14:58:35;92.95;;;34.25;;
77246;SDS011;66279;42.820;23.374;2023-04-03T15:01:02;71.00;;;29.90;;
77246;SDS011;66279;42.820;23.374;2023-04-03T15:03:27;67.22;;;28.50;;
77246;SDS011;66279;42.820;23.374;2023-04-03T15:05:53;54.22;;;26.90;;
77246;SDS011;66279;42.820;23.374;2023-04-03T15:08:23;50.30;;;22.25;;
77246;SDS011;66279;42.820;23.374;2023-04-03T15:10:51;40.45;;;18.83;;
77246;SDS011;66279;42.820;23.374;2023-04-03T15:13:18;45.05;;;19.65;;
77246;SDS011;66279;42.820;23.374;2023-04-03T15:15:45;39.70;;;19.67;;
77246;SDS011;66279;42.820;23.374;2023-04-03T15:18:14;38.42;;;18.15;;
77246;SDS011;66279;42.820;23.374;2023-04-03T15:20:43;39.83;;;18.75;;
77246;SDS011;66279;42.820;23.374;2023-04-03T15:23:10;36.22;;;20.08;;
77246;SDS011;66279;42.820;23.374;2023-04-03T15:25:37;44.97;;;22.85;;
77246;SDS011;66279;42.820;23.374;2023-04-03T15:28:04;29.05;;;16.13;;
77246;SDS011;66279;42.820;23.374;2023-04-03T15:30:31;29.52;;;15.68;;
77246;SDS011;66279;42.820;23.374;2023-04-03T15:32:56;31.90;;;15.48;;
77246;SDS011;66279;42.820;23.374;2023-04-03T15:35:22;40.67;;;26.05;;
77246;SDS011;66279;42.820;23.374;2023-04-03T15:37:48;30.95;;;20.15;;
77246;SDS011;66279;42.820;23.374;2023-04-03T15:40:14;39.03;;;18.80;;
77246;SDS011;66279;42.820;23.374;2023-04-03T15:42:39;39.30;;;20.40;;
77246;SDS011;66279;42.820;23.374;2023-04-03T15:45:06;35.30;;;20.92;;
77246;SDS011;66279;42.820;23.374;2023-04-03T15:47:32;33.28;;;17.73;;
77246;SDS011;66279;42.820;23.374;2023-04-03T15:49:58;36.03;;;22.77;;
77246;SDS011;66279;42.820;23.374;2023-04-03T15:52:23;33.92;;;17.05;;
77246;SDS011;66279;42.820;23.374;2023-04-03T15:54:49;53.00;;;23.15;;
77246;SDS011;66279;42.820;23.374;2023-04-03T15:57:15;50.05;;;19.02;;
77246;SDS011;66279;42.820;23.374;2023-04-03T15:59:40;33.55;;;15.35;;
77246;SDS011;66279;42.820;23.374;2023-04-03T16:02:06;31.40;;;13.35;;
77246;SDS011;66279;42.820;23.374;2023-04-03T16:04:35;36.60;;;16.27;;
77246;SDS011;66279;42.820;23.374;2023-04-03T16:07:04;75.15;;;37.00;;
77246;SDS011;66279;42.820;23.374;2023-04-03T16:09:30;78.88;;;37.92;;
77246;SDS011;66279;42.820;23.374;2023-04-03T16:11:57;99.60;;;46.00;;
77246;SDS011;66279;42.820;23.374;2023-04-03T16:14:23;52.40;;;23.42;;
77246;SDS011;66279;42.820;23.374;2023-04-03T16:16:48;36.42;;;19.58;;
77246;SDS011;66279;42.820;23.374;2023-04-03T16:19:15;44.53;;;20.50;;
77246;SDS011;66279;42.820;23.374;2023-04-03T16:21:40;47.95;;;21.77;;
77246;SDS011;66279;42.820;23.374;2023-04-03T16:24:06;52.90;;;23.20;;
77246;SDS011;66279;42.820;23.374;2023-04-03T16:26:32;65.50;;;25.95;;
77246;SDS011;66279;42.820;23.374;2023-04-03T16:28:57;63.40;;;26.23;;